Foster, Ohio
Current Conditions -  °F | °C
As of 1:53 PM on Friday 24 Oct 2014 (Local Time) from KHAO Reporting Station
Clear Clear  
Wind Chill: 63°   Ceiling: Unl
Heat Index: 63°   Visibility: 10mi
Dew Point: 42°   Wind: 5mph
Humidity: 46%   Direction: 310°NW
Pressure: 30.1"   Gusts: NA
Location:  39.3164°N, 84.2265°W
Report Text: KHAO 241753Z AUTO 31004KT 10SM CLR 17/06 A3010 RMK AO2 SLP194 T01720056 10178 20011 58014
Loading
Personal Weather Stations






























Interactive Weather Map
Tropical Storm Tracking
New forecast layout! Learn more

10-Day Weather Forecast

Advertisements
Track Severe Weather on mobile